Time;durP1;ratioP1;P1;durP2;ratioP2;P2;SDS_P1;SDS_P2;PMS_P1;PMS_P2;Temp;Humidity;BMP_temperature;BMP_pressure;BME280_temperature;BME280_humidity;BME280_pressure;Samples;Min_cycle;Max_cycle;Signal;HPM_P1;HPM_P2
2023/07/04 00:01:22;;;;;;;6.78;3.40;;;;;;;;;;5011216;28;20037;-66
2023/07/04 00:03:56;;;;;;;9.23;3.85;;;;;;;;;;5010739;28;20036;-66
2023/07/04 00:06:23;;;;;;;7.88;3.50;;;;;;;;;;5010814;28;20369;-66
2023/07/04 00:08:50;;;;;;;7.32;3.17;;;;;;;;;;4992692;28;20072;-66
2023/07/04 00:11:17;;;;;;;11.27;3.45;;;;;;;;;;4993588;28;20515;-66
2023/07/04 00:13:43;;;;;;;6.05;3.33;;;;;;;;;;5011041;28;20118;-66
2023/07/04 00:16:10;;;;;;;9.82;3.35;;;;;;;;;;4993370;28;20030;-66
2023/07/04 00:18:36;;;;;;;8.77;4.03;;;;;;;;;;4992509;28;20037;-66
2023/07/04 00:21:03;;;;;;;5.07;3.10;;;;;;;;;;5010690;28;20038;-67
2023/07/04 00:23:34;;;;;;;7.63;3.63;;;;;;;;;;5010924;28;20034;-66
2023/07/04 00:26:00;;;;;;;9.05;4.03;;;;;;;;;;5010620;28;20038;-66
2023/07/04 00:28:26;;;;;;;12.75;4.15;;;;;;;;;;5010079;28;20543;-67
2023/07/04 00:30:54;;;;;;;6.78;3.75;;;;;;;;;;5010619;28;20026;-67
2023/07/04 00:33:21;;;;;;;6.55;3.10;;;;;;;;;;5010700;28;20026;-67
2023/07/04 00:35:47;;;;;;;7.20;3.17;;;;;;;;;;5010848;28;20105;-67
2023/07/04 00:38:15;;;;;;;9.35;3.80;;;;;;;;;;5009964;28;20028;-67
2023/07/04 00:40:41;;;;;;;7.90;3.20;;;;;;;;;;5010601;28;20032;-68
2023/07/04 00:43:12;;;;;;;6.28;3.22;;;;;;;;;;5010607;28;20484;-68
2023/07/04 00:45:42;;;;;;;7.63;3.50;;;;;;;;;;5010423;28;20072;-67
2023/07/04 00:48:09;;;;;;;7.07;3.58;;;;;;;;;;5013264;28;20104;-67
2023/07/04 00:50:38;;;;;;;17.38;3.22;;;;;;;;;;5014184;28;20511;-67
2023/07/04 00:53:06;;;;;;;7.32;3.70;;;;;;;;;;4996547;28;20018;-67
2023/07/04 00:55:33;;;;;;;5.05;3.22;;;;;;;;;;5014351;28;20029;-67
2023/07/04 00:58:04;;;;;;;7.45;3.47;;;;;;;;;;5013185;28;20445;-67
2023/07/04 01:00:30;;;;;;;8.57;3.55;;;;;;;;;;5013920;28;20029;-67
2023/07/04 01:03:05;;;;;;;7.38;3.33;;;;;;;;;;5013856;28;20072;-67
2023/07/04 01:05:34;;;;;;;10.10;3.90;;;;;;;;;;5014106;28;20025;-67
2023/07/04 01:08:04;;;;;;;4.70;2.78;;;;;;;;;;5013334;28;20022;-67
2023/07/04 01:10:32;;;;;;;6.93;2.97;;;;;;;;;;5013691;28;20029;-66
2023/07/04 01:12:59;;;;;;;7.57;3.30;;;;;;;;;;5014074;28;20105;-67
2023/07/04 01:15:25;;;;;;;5.50;2.70;;;;;;;;;;5013905;28;20037;-67
2023/07/04 01:17:51;;;;;;;7.32;3.53;;;;;;;;;;5012921;28;20231;-68
2023/07/04 01:20:18;;;;;;;11.48;3.42;;;;;;;;;;5013385;28;20041;-67
2023/07/04 01:23:02;;;;;;;5.47;2.90;;;;;;;;;;5013647;28;20480;-67
2023/07/04 01:25:28;;;;;;;5.55;3.00;;;;;;;;;;5013463;28;20103;-67
2023/07/04 01:27:59;;;;;;;6.15;3.42;;;;;;;;;;5013004;28;20026;-67
2023/07/04 01:30:27;;;;;;;10.52;3.28;;;;;;;;;;5013643;28;20160;-67
2023/07/04 01:32:53;;;;;;;6.45;3.33;;;;;;;;;;5013498;28;20052;-67
2023/07/04 01:35:22;;;;;;;6.22;3.00;;;;;;;;;;5013569;28;20030;-67
2023/07/04 01:37:48;;;;;;;6.18;3.22;;;;;;;;;;5012818;28;20432;-67
2023/07/04 01:40:14;;;;;;;6.95;3.08;;;;;;;;;;5013483;28;20021;-67
2023/07/04 01:42:40;;;;;;;8.13;3.08;;;;;;;;;;5013410;28;20030;-67
2023/07/04 01:45:07;;;;;;;6.20;3.30;;;;;;;;;;5013247;28;20034;-67
2023/07/04 01:47:34;;;;;;;6.38;2.78;;;;;;;;;;5012585;28;20038;-67
2023/07/04 01:50:00;;;;;;;5.72;2.90;;;;;;;;;;5013111;28;20026;-68
2023/07/04 01:52:27;;;;;;;4.47;2.85;;;;;;;;;;5013081;28;20049;-66
2023/07/04 01:54:53;;;;;;;5.90;3.45;;;;;;;;;;5013267;28;20092;-67
2023/07/04 01:57:19;;;;;;;5.72;3.30;;;;;;;;;;5012555;28;20033;-67
2023/07/04 01:59:45;;;;;;;5.18;3.17;;;;;;;;;;5012561;28;20022;-67
2023/07/04 02:02:11;;;;;;;6.90;3.10;;;;;;;;;;5013123;28;20113;-67
2023/07/04 02:04:37;;;;;;;8.35;3.42;;;;;;;;;;5012673;28;20165;-67
2023/07/04 02:07:03;;;;;;;5.32;3.10;;;;;;;;;;5012768;28;20202;-65
2023/07/04 02:09:29;;;;;;;5.68;2.58;;;;;;;;;;5012795;28;20022;-66
2023/07/04 02:11:55;;;;;;;5.28;3.17;;;;;;;;;;5012980;28;20026;-66
2023/07/04 02:14:21;;;;;;;7.45;3.53;;;;;;;;;;5012780;28;20030;-66
2023/07/04 02:16:49;;;;;;;9.48;3.25;;;;;;;;;;5012800;28;20033;-66
2023/07/04 02:19:15;;;;;;;7.18;2.80;;;;;;;;;;5012236;28;20491;-66
2023/07/04 02:21:41;;;;;;;3.83;2.42;;;;;;;;;;5058546;22;20510;-72
2023/07/04 02:24:07;;;;;;;7.18;3.03;;;;;;;;;;5014436;28;20021;-70
2023/07/04 02:26:33;;;;;;;7.10;2.83;;;;;;;;;;5032209;28;20037;-70
2023/07/04 02:28:59;;;;;;;4.45;2.92;;;;;;;;;;5031604;28;20048;-70
2023/07/04 02:31:26;;;;;;;5.57;2.63;;;;;;;;;;5031896;28;20033;-71
2023/07/04 02:33:52;;;;;;;4.63;2.67;;;;;;;;;;5032234;28;20029;-71
2023/07/04 02:36:19;;;;;;;7.53;2.88;;;;;;;;;;5032813;28;20025;-70
2023/07/04 02:38:45;;;;;;;4.75;2.75;;;;;;;;;;5031608;28;20438;-70
2023/07/04 02:41:11;;;;;;;6.40;3.50;;;;;;;;;;5032033;28;20025;-71
2023/07/04 02:43:37;;;;;;;4.00;2.80;;;;;;;;;;5032124;28;20412;-72
2023/07/04 02:46:05;;;;;;;5.43;3.22;;;;;;;;;;5031717;28;20038;-70
2023/07/04 02:48:31;;;;;;;4.45;2.55;;;;;;;;;;5013401;28;20021;-71
2023/07/04 02:50:57;;;;;;;5.85;2.40;;;;;;;;;;5031825;28;20028;-70
2023/07/04 02:53:23;;;;;;;4.45;3.13;;;;;;;;;;5031765;28;20022;-71
2023/07/04 02:55:50;;;;;;;6.75;3.00;;;;;;;;;;5031596;28;20545;-70
2023/07/04 02:58:17;;;;;;;5.75;3.05;;;;;;;;;;5031011;28;20021;-71
2023/07/04 03:00:43;;;;;;;6.85;2.33;;;;;;;;;;5013599;28;20041;-72
2023/07/04 03:03:09;;;;;;;3.28;2.45;;;;;;;;;;5031536;28;20036;-71
2023/07/04 03:05:35;;;;;;;6.50;3.10;;;;;;;;;;5031582;28;20025;-71
2023/07/04 03:08:01;;;;;;;9.60;5.95;;;;;;;;;;5030600;28;20049;-73
2023/07/04 03:10:27;;;;;;;12.80;6.05;;;;;;;;;;5030754;28;20034;-72
2023/07/04 03:12:53;;;;;;;18.48;11.48;;;;;;;;;;5031220;28;20067;-71
2023/07/04 03:15:19;;;;;;;9.20;3.60;;;;;;;;;;5031399;28;20091;-71
2023/07/04 03:17:45;;;;;;;10.57;5.60;;;;;;;;;;5030700;28;20029;-71
2023/07/04 03:20:12;;;;;;;5.43;2.63;;;;;;;;;;5031367;28;20415;-72
2023/07/04 03:22:39;;;;;;;5.45;2.80;;;;;;;;;;5031094;28;20033;-72
2023/07/04 03:25:06;;;;;;;5.65;2.55;;;;;;;;;;5031132;28;20545;-71
2023/07/04 03:27:33;;;;;;;5.05;2.50;;;;;;;;;;5030287;28;20082;-71
2023/07/04 03:29:59;;;;;;;4.68;3.08;;;;;;;;;;5031106;28;20025;-71
2023/07/04 03:32:25;;;;;;;3.47;2.35;;;;;;;;;;5031130;28;20032;-71
2023/07/04 03:34:51;;;;;;;4.55;2.58;;;;;;;;;;5031174;28;20037;-72
2023/07/04 03:37:17;;;;;;;4.88;2.50;;;;;;;;;;5030229;28;20037;-69
2023/07/04 03:39:43;;;;;;;4.45;2.17;;;;;;;;;;5030823;28;20037;-71
2023/07/04 03:42:09;;;;;;;5.18;2.47;;;;;;;;;;5030781;28;20113;-71
2023/07/04 03:44:35;;;;;;;4.03;2.53;;;;;;;;;;5030847;28;20083;-71
2023/07/04 03:47:01;;;;;;;3.92;2.40;;;;;;;;;;5030343;28;20022;-71
2023/07/04 03:49:27;;;;;;;8.90;3.35;;;;;;;;;;5030383;28;20017;-71
2023/07/04 03:51:53;;;;;;;4.03;2.20;;;;;;;;;;5030770;28;20442;-71
2023/07/04 03:54:19;;;;;;;6.57;2.35;;;;;;;;;;5030840;28;20029;-71
2023/07/04 03:56:45;;;;;;;5.15;2.28;;;;;;;;;;5030553;28;20105;-72
2023/07/04 03:59:11;;;;;;;4.78;2.47;;;;;;;;;;5029797;28;20029;-71
2023/07/04 04:01:37;;;;;;;3.85;2.08;;;;;;;;;;5030968;28;20041;-71
2023/07/04 04:04:03;;;;;;;6.60;2.90;;;;;;;;;;5030569;28;20443;-71
2023/07/04 04:06:29;;;;;;;4.65;2.45;;;;;;;;;;5030731;28;20088;-73
2023/07/04 04:08:55;;;;;;;5.15;1.92;;;;;;;;;;5030041;28;20029;-73
2023/07/04 04:11:21;;;;;;;2.92;2.00;;;;;;;;;;5030357;28;20021;-71
2023/07/04 04:13:47;;;;;;;3.20;2.15;;;;;;;;;;5030599;28;20053;-71
2023/07/04 04:16:13;;;;;;;2.85;2.00;;;;;;;;;;5030502;28;20652;-71
2023/07/04 04:18:39;;;;;;;4.22;2.20;;;;;;;;;;5029726;28;20025;-71
2023/07/04 04:21:05;;;;;;;7.18;2.50;;;;;;;;;;5030146;28;20045;-72
2023/07/04 04:23:31;;;;;;;3.95;2.47;;;;;;;;;;5034268;28;20030;-71
2023/07/04 04:25:57;;;;;;;3.55;2.60;;;;;;;;;;5034105;28;20710;-72
2023/07/04 04:28:24;;;;;;;6.50;3.28;;;;;;;;;;5033811;28;20021;-72
2023/07/04 04:30:50;;;;;;;4.53;2.30;;;;;;;;;;5034249;28;20028;-73
2023/07/04 04:33:16;;;;;;;5.97;2.13;;;;;;;;;;5034619;28;20067;-72
2023/07/04 04:35:45;;;;;;;5.25;2.63;;;;;;;;;;5034190;28;20021;-72
2023/07/04 04:38:11;;;;;;;2.45;2.03;;;;;;;;;;5033368;28;20032;-73
2023/07/04 04:40:37;;;;;;;4.25;2.65;;;;;;;;;;5034483;28;20336;-73
2023/07/04 04:43:03;;;;;;;3.00;2.28;;;;;;;;;;5034578;28;20108;-72
2023/07/04 04:45:29;;;;;;;4.40;2.10;;;;;;;;;;5034116;28;20052;-73
2023/07/04 04:47:56;;;;;;;5.03;2.22;;;;;;;;;;5033461;28;20647;-72
2023/07/04 04:50:22;;;;;;;5.53;2.40;;;;;;;;;;5033456;28;20029;-73
2023/07/04 04:52:49;;;;;;;4.15;2.90;;;;;;;;;;5034000;28;20021;-73
2023/07/04 04:55:15;;;;;;;6.45;2.28;;;;;;;;;;5033638;28;20104;-73
2023/07/04 04:57:41;;;;;;;4.32;2.40;;;;;;;;;;5033221;28;20045;-72
2023/07/04 05:00:08;;;;;;;5.25;2.58;;;;;;;;;;5033741;28;20108;-73
2023/07/04 05:02:34;;;;;;;5.88;3.00;;;;;;;;;;5033637;28;20040;-72
2023/07/04 05:05:00;;;;;;;4.45;2.78;;;;;;;;;;5018677;28;20022;-73
2023/07/04 05:07:26;;;;;;;5.15;3.08;;;;;;;;;;5013062;28;20100;-72
2023/07/04 05:09:53;;;;;;;2.90;2.53;;;;;;;;;;5013798;28;20022;-73
2023/07/04 05:12:19;;;;;;;4.15;2.85;;;;;;;;;;5013915;28;20072;-73
2023/07/04 05:14:45;;;;;;;5.35;3.13;;;;;;;;;;5013840;28;20026;-70
2023/07/04 05:17:11;;;;;;;5.20;2.63;;;;;;;;;;5013133;28;20499;-72
2023/07/04 05:19:37;;;;;;;8.75;3.28;;;;;;;;;;5006415;28;20026;-73
2023/07/04 05:22:03;;;;;;;3.90;2.88;;;;;;;;;;5032888;28;20037;-72
2023/07/04 05:24:30;;;;;;;5.40;3.03;;;;;;;;;;5033601;28;20025;-71
2023/07/04 05:26:56;;;;;;;5.45;2.97;;;;;;;;;;5033180;28;20029;-72
2023/07/04 05:29:22;;;;;;;3.83;3.03;;;;;;;;;;5032628;28;20028;-72
2023/07/04 05:31:48;;;;;;;5.75;3.47;;;;;;;;;;5033082;28;20101;-72
2023/07/04 05:34:14;;;;;;;7.20;3.50;;;;;;;;;;5032158;28;20101;-71
2023/07/04 05:36:41;;;;;;;4.57;3.10;;;;;;;;;;5032826;28;20029;-71
2023/07/04 05:39:07;;;;;;;3.78;3.30;;;;;;;;;;5032269;28;20484;-71
2023/07/04 05:41:34;;;;;;;5.47;3.03;;;;;;;;;;5033178;28;20028;-72
2023/07/04 05:44:01;;;;;;;8.25;3.42;;;;;;;;;;5032948;28;20037;-72
2023/07/04 05:46:27;;;;;;;7.97;3.42;;;;;;;;;;5032687;28;20667;-72
2023/07/04 05:48:54;;;;;;;8.63;3.28;;;;;;;;;;5032023;28;20491;-73
2023/07/04 05:51:21;;;;;;;5.10;3.28;;;;;;;;;;5032678;28;20026;-72
2023/07/04 05:53:48;;;;;;;4.88;3.63;;;;;;;;;;5032960;28;20029;-73
2023/07/04 05:56:15;;;;;;;9.02;3.55;;;;;;;;;;5032401;28;20037;-73
2023/07/04 05:58:42;;;;;;;7.80;2.97;;;;;;;;;;5032069;28;20040;-72
2023/07/04 06:01:14;;;;;;;6.38;3.42;;;;;;;;;;5014545;28;20022;-72
2023/07/04 06:03:41;;;;;;;6.68;3.50;;;;;;;;;;5032491;28;20048;-72
2023/07/04 06:06:07;;;;;;;4.80;3.28;;;;;;;;;;5032424;28;20079;-73
2023/07/04 06:08:34;;;;;;;8.50;3.92;;;;;;;;;;5032296;28;20084;-72
2023/07/04 06:11:04;;;;;;;8.77;3.95;;;;;;;;;;5014689;28;20032;-72
2023/07/04 06:13:30;;;;;;;8.23;3.67;;;;;;;;;;5032347;28;20160;-72
2023/07/04 06:15:57;;;;;;;7.20;3.78;;;;;;;;;;5032565;28;20064;-72
2023/07/04 06:18:23;;;;;;;7.65;3.92;;;;;;;;;;5031220;28;20040;-71
2023/07/04 06:20:49;;;;;;;5.55;4.03;;;;;;;;;;5032567;28;20040;-71
2023/07/04 06:23:15;;;;;;;7.57;3.97;;;;;;;;;;5045161;28;20090;-71
2023/07/04 06:25:41;;;;;;;6.88;3.45;;;;;;;;;;5032093;28;20060;-71
2023/07/04 06:28:07;;;;;;;6.90;3.67;;;;;;;;;;5024418;28;20045;-72
2023/07/04 06:30:38;;;;;;;7.22;3.40;;;;;;;;;;5012066;28;20026;-73
2023/07/04 06:33:04;;;;;;;7.40;3.80;;;;;;;;;;4993781;28;20510;-72
2023/07/04 06:35:31;;;;;;;6.30;3.80;;;;;;;;;;4994618;28;20030;-72
2023/07/04 06:37:57;;;;;;;7.15;3.75;;;;;;;;;;5010449;28;20040;-72
2023/07/04 06:40:23;;;;;;;7.15;4.35;;;;;;;;;;5014228;28;20083;-72
2023/07/04 06:42:49;;;;;;;10.85;5.20;;;;;;;;;;5013867;28;20025;-73
2023/07/04 06:45:15;;;;;;;11.65;4.15;;;;;;;;;;5031617;28;20391;-72
2023/07/04 06:47:41;;;;;;;6.68;3.88;;;;;;;;;;5013403;28;20105;-72
2023/07/04 06:50:07;;;;;;;7.80;4.10;;;;;;;;;;5014328;28;20053;-72
2023/07/04 06:52:34;;;;;;;9.43;4.80;;;;;;;;;;5031122;28;20049;-71
2023/07/04 06:55:00;;;;;;;7.90;4.78;;;;;;;;;;4994906;28;20034;-71
2023/07/04 06:57:26;;;;;;;12.20;4.57;;;;;;;;;;5009196;28;20033;-71
2023/07/04 06:59:52;;;;;;;12.27;4.90;;;;;;;;;;4993806;28;20435;-71
2023/07/04 07:02:18;;;;;;;8.98;4.55;;;;;;;;;;4993864;28;20057;-72
2023/07/04 07:04:44;;;;;;;13.10;4.72;;;;;;;;;;4993513;28;20088;-71
2023/07/04 07:07:11;;;;;;;10.82;4.20;;;;;;;;;;5010819;28;20096;-72
2023/07/04 07:09:38;;;;;;;9.45;3.75;;;;;;;;;;5011407;28;20097;-71
2023/07/04 07:12:04;;;;;;;10.55;4.43;;;;;;;;;;4993825;28;20045;-71
2023/07/04 07:14:31;;;;;;;9.15;4.13;;;;;;;;;;4993676;28;20385;-71
2023/07/04 07:16:57;;;;;;;7.20;4.35;;;;;;;;;;4993803;28;20814;-72
2023/07/04 07:19:26;;;;;;;7.45;3.60;;;;;;;;;;4993573;28;20030;-72
2023/07/04 07:21:52;;;;;;;6.68;3.72;;;;;;;;;;5011457;28;20109;-72
2023/07/04 07:24:18;;;;;;;6.90;3.33;;;;;;;;;;5011617;28;20431;-70
2023/07/04 07:26:44;;;;;;;8.57;4.43;;;;;;;;;;4993784;28;20030;-73
2023/07/04 07:29:10;;;;;;;10.43;3.70;;;;;;;;;;5010421;28;20076;-73
2023/07/04 07:31:37;;;;;;;7.53;3.90;;;;;;;;;;5011276;28;20022;-71
2023/07/04 07:34:04;;;;;;;6.47;3.50;;;;;;;;;;4993892;28;20029;-74
2023/07/04 07:36:37;;;;;;;6.07;3.38;;;;;;;;;;5011388;28;20030;-71
2023/07/04 07:39:04;;;;;;;9.80;3.85;;;;;;;;;;5010484;28;20018;-72
2023/07/04 07:41:31;;;;;;;7.20;3.55;;;;;;;;;;4993177;28;20108;-73
2023/07/04 07:43:58;;;;;;;6.40;3.45;;;;;;;;;;4993431;28;20033;-73
2023/07/04 07:46:24;;;;;;;4.82;3.45;;;;;;;;;;5011121;28;20079;-72
2023/07/04 07:48:50;;;;;;;6.85;3.50;;;;;;;;;;4992715;28;20025;-74
2023/07/04 07:51:17;;;;;;;6.35;3.90;;;;;;;;;;5011080;28;20411;-74
2023/07/04 07:53:46;;;;;;;8.52;3.85;;;;;;;;;;4993392;28;20072;-74
2023/07/04 07:56:14;;;;;;;7.75;3.90;;;;;;;;;;4992664;28;20029;-73
2023/07/04 07:58:40;;;;;;;6.95;3.78;;;;;;;;;;5010530;28;20048;-73
2023/07/04 08:01:16;;;;;;;6.78;3.55;;;;;;;;;;5001570;28;20018;-73
2023/07/04 08:03:43;;;;;;;8.82;3.45;;;;;;;;;;5010874;28;20031;-73
2023/07/04 08:06:10;;;;;;;8.13;3.97;;;;;;;;;;4993203;28;20500;-73
2023/07/04 08:08:36;;;;;;;6.20;3.38;;;;;;;;;;5010229;28;20022;-73
2023/07/04 08:11:02;;;;;;;5.85;3.85;;;;;;;;;;4993330;28;20022;-72
2023/07/04 08:13:28;;;;;;;5.82;3.67;;;;;;;;;;4993401;28;20101;-73
2023/07/04 08:15:54;;;;;;;6.90;3.60;;;;;;;;;;4993309;28;20034;-74
2023/07/04 08:18:20;;;;;;;6.63;3.58;;;;;;;;;;4992709;28;20030;-73
2023/07/04 08:21:00;;;;;;;4.72;3.17;;;;;;;;;;5010676;28;20018;-73
2023/07/04 08:23:26;;;;;;;5.68;3.17;;;;;;;;;;5018584;23;20042;-69
2023/07/04 08:25:52;;;;;;;6.60;3.60;;;;;;;;;;5010410;28;20074;-69
2023/07/04 08:28:19;;;;;;;6.32;3.38;;;;;;;;;;5012259;28;20022;-69
2023/07/04 08:30:45;;;;;;;8.52;3.75;;;;;;;;;;5015004;28;20059;-69
2023/07/04 08:33:17;;;;;;;4.28;3.15;;;;;;;;;;5012962;28;20117;-69
2023/07/04 08:35:59;;;;;;;4.60;3.20;;;;;;;;;;5009341;28;20042;-70
2023/07/04 08:38:26;;;;;;;5.28;3.50;;;;;;;;;;5008524;28;20462;-69
2023/07/04 08:40:52;;;;;;;6.43;3.05;;;;;;;;;;5009083;28;20030;-69
2023/07/04 08:43:29;;;;;;;8.27;3.88;;;;;;;;;;5010661;28;20022;-69
2023/07/04 08:45:56;;;;;;;6.15;3.40;;;;;;;;;;5010425;28;20026;-69
2023/07/04 08:48:24;;;;;;;7.28;3.78;;;;;;;;;;5008387;28;20025;-70
2023/07/04 08:50:52;;;;;;;5.90;3.90;;;;;;;;;;5010370;28;20026;-69
2023/07/04 08:53:21;;;;;;;6.30;3.92;;;;;;;;;;5010091;28;20176;-70
2023/07/04 08:55:53;;;;;;;4.95;4.00;;;;;;;;;;5009029;28;20381;-69
2023/07/04 08:58:21;;;;;;;4.90;3.60;;;;;;;;;;5009378;28;20034;-68
2023/07/04 09:00:47;;;;;;;9.18;4.05;;;;;;;;;;5009117;28;20026;-68
2023/07/04 09:03:28;;;;;;;11.60;4.82;;;;;;;;;;5009977;28;20030;-68
2023/07/04 09:06:03;;;;;;;8.93;3.97;;;;;;;;;;5010202;28;20439;-69
2023/07/04 09:08:29;;;;;;;5.90;3.42;;;;;;;;;;5010200;28;20033;-69
2023/07/04 09:11:00;;;;;;;7.30;3.70;;;;;;;;;;5013934;28;20026;-69
2023/07/04 09:13:26;;;;;;;7.43;3.92;;;;;;;;;;5013761;28;20440;-69
2023/07/04 09:15:52;;;;;;;6.07;3.50;;;;;;;;;;5013570;28;20557;-68
2023/07/04 09:18:29;;;;;;;4.72;3.90;;;;;;;;;;5012766;28;20030;-69
2023/07/04 09:21:21;;;;;;;7.38;3.85;;;;;;;;;;4996168;28;20033;-69
2023/07/04 09:23:47;;;;;;;5.80;3.28;;;;;;;;;;5011443;28;20057;-69
2023/07/04 09:26:18;;;;;;;6.15;3.80;;;;;;;;;;5012213;28;20381;-69
2023/07/04 09:28:44;;;;;;;7.38;4.00;;;;;;;;;;5012488;28;20033;-69
2023/07/04 09:31:13;;;;;;;8.48;3.85;;;;;;;;;;5013472;28;20018;-71
2023/07/04 09:33:39;;;;;;;5.18;3.40;;;;;;;;;;5013412;28;20463;-70
2023/07/04 09:36:06;;;;;;;5.60;4.00;;;;;;;;;;5013521;28;20241;-70
2023/07/04 09:39:05;;;;;;;8.52;4.25;;;;;;;;;;5012495;28;20018;-71
2023/07/04 09:41:31;;;;;;;7.13;3.60;;;;;;;;;;4980370;28;20068;-70
2023/07/04 09:44:11;;;;;;;7.00;3.80;;;;;;;;;;5013235;28;20034;-70
2023/07/04 09:46:38;;;;;;;6.63;4.07;;;;;;;;;;5013444;28;20396;-70
2023/07/04 09:49:30;;;;;;;7.63;3.85;;;;;;;;;;5012420;28;20104;-70
2023/07/04 09:52:20;;;;;;;8.18;4.00;;;;;;;;;;5010758;28;20037;-70
2023/07/04 09:55:04;;;;;;;7.97;4.00;;;;;;;;;;5013203;28;20018;-69
2023/07/04 09:57:32;;;;;;;5.80;3.85;;;;;;;;;;5011347;28;20512;-71
2023/07/04 10:00:15;;;;;;;7.13;3.97;;;;;;;;;;5012723;28;20034;-71
2023/07/04 10:02:42;;;;;;;5.82;3.60;;;;;;;;;;5013019;28;20045;-71
2023/07/04 10:05:10;;;;;;;7.63;4.30;;;;;;;;;;5013036;28;20025;-71
2023/07/04 10:07:36;;;;;;;7.13;4.07;;;;;;;;;;5012307;28;20572;-70
2023/07/04 10:10:06;;;;;;;7.63;4.28;;;;;;;;;;5013028;28;20026;-70
2023/07/04 10:12:40;;;;;;;9.80;4.30;;;;;;;;;;5013327;28;20057;-70
2023/07/04 10:15:06;;;;;;;8.18;4.57;;;;;;;;;;5012817;28;20022;-70
2023/07/04 10:17:35;;;;;;;5.47;4.63;;;;;;;;;;5012299;28;20022;-71
2023/07/04 10:20:08;;;;;;;13.93;5.20;;;;;;;;;;5012569;28;20484;-70
2023/07/04 10:22:40;;;;;;;12.70;5.88;;;;;;;;;;5012465;28;20037;-71
2023/07/04 10:25:11;;;;;;;9.30;5.80;;;;;;;;;;5012401;28;20055;-71
2023/07/04 10:27:38;;;;;;;6.78;5.22;;;;;;;;;;5007282;28;20026;-70
2023/07/04 10:30:09;;;;;;;9.02;6.00;;;;;;;;;;4992899;28;20038;-69
2023/07/04 10:32:42;;;;;;;9.48;6.68;;;;;;;;;;4995828;28;20611;-77
2023/07/04 10:35:47;;;;;;;8.43;6.45;;;;;;;;;;5083820;28;20160;-76
2023/07/04 10:38:36;;;;;;;8.52;5.93;;;;;;;;;;5070991;28;20040;-77
2023/07/04 10:41:13;;;;;;;10.38;6.85;;;;;;;;;;5065485;28;20032;-77
2023/07/04 10:43:42;;;;;;;7.55;6.38;;;;;;;;;;5070209;28;20037;-77
2023/07/04 10:46:09;;;;;;;8.95;7.38;;;;;;;;;;5068704;28;20028;-77
2023/07/04 10:48:36;;;;;;;11.27;7.43;;;;;;;;;;5069533;28;20025;-76
2023/07/04 10:51:16;;;;;;;9.20;6.82;;;;;;;;;;5076330;28;20032;-77
2023/07/04 10:53:42;;;;;;;10.88;7.70;;;;;;;;;;5069632;28;20017;-77
2023/07/04 10:56:13;;;;;;;9.18;7.10;;;;;;;;;;5067302;28;20032;-76
2023/07/04 10:58:41;;;;;;;10.40;6.90;;;;;;;;;;5068446;28;20032;-78
2023/07/04 11:01:14;;;;;;;11.30;7.15;;;;;;;;;;5069648;28;20024;-77
2023/07/04 11:03:44;;;;;;;9.80;7.88;;;;;;;;;;5072568;28;20029;-78
2023/07/04 11:06:13;;;;;;;10.85;8.75;;;;;;;;;;5068606;28;20033;-77
2023/07/04 11:08:40;;;;;;;13.50;8.68;;;;;;;;;;5069984;28;20029;-79
2023/07/04 11:11:08;;;;;;;9.48;8.20;;;;;;;;;;5070052;28;20020;-76
2023/07/04 11:13:35;;;;;;;13.55;8.30;;;;;;;;;;5069973;28;20021;-77
2023/07/04 11:16:04;;;;;;;11.40;8.48;;;;;;;;;;5069364;28;20024;-76
2023/07/04 11:18:37;;;;;;;10.30;8.13;;;;;;;;;;5066527;28;20017;-76
2023/07/04 11:21:10;;;;;;;12.07;8.27;;;;;;;;;;5067594;28;20116;-76
2023/07/04 11:23:44;;;;;;;11.93;8.95;;;;;;;;;;5067683;28;20430;-77
2023/07/04 11:26:10;;;;;;;13.23;9.10;;;;;;;;;;5067585;28;20074;-77
2023/07/04 11:28:36;;;;;;;13.70;7.32;;;;;;;;;;5065288;28;20024;-77
2023/07/04 11:31:11;;;;;;;16.38;8.48;;;;;;;;;;5068029;28;20020;-77
2023/07/04 11:33:44;;;;;;;11.98;8.73;;;;;;;;;;5069757;28;20535;-76
2023/07/04 11:36:28;;;;;;;13.07;9.68;;;;;;;;;;5087656;28;20031;-77
2023/07/04 11:38:58;;;;;;;10.48;8.27;;;;;;;;;;5086886;28;20032;-77
2023/07/04 11:41:27;;;;;;;14.35;10.10;;;;;;;;;;5087977;28;20024;-76
2023/07/04 11:43:54;;;;;;;14.13;9.60;;;;;;;;;;5091295;28;20518;-76
2023/07/04 11:46:30;;;;;;;15.02;10.23;;;;;;;;;;5079628;28;20043;-76
2023/07/04 11:48:56;;;;;;;12.73;9.43;;;;;;;;;;5074326;28;20032;-76
2023/07/04 11:51:24;;;;;;;13.25;10.10;;;;;;;;;;5075650;28;20025;-76
2023/07/04 11:54:08;;;;;;;12.52;9.80;;;;;;;;;;5075522;28;20474;-74
2023/07/04 11:56:36;;;;;;;13.23;10.32;;;;;;;;;;5073205;28;20032;-72
2023/07/04 11:59:11;;;;;;;12.63;10.45;;;;;;;;;;5072675;28;20050;-73
2023/07/04 12:01:53;;;;;;;16.02;10.27;;;;;;;;;;5073502;28;20032;-73
2023/07/04 12:04:42;;;;;;;13.45;9.35;;;;;;;;;;5071826;28;20032;-73
2023/07/04 12:07:26;;;;;;;14.68;11.27;;;;;;;;;;5066852;28;20040;-72
2023/07/04 12:10:01;;;;;;;15.05;10.57;;;;;;;;;;5073097;28;20104;-72
2023/07/04 12:12:28;;;;;;;15.38;11.23;;;;;;;;;;5073205;28;20044;-72
2023/07/04 12:14:59;;;;;;;14.98;11.63;;;;;;;;;;5072961;28;20031;-72
2023/07/04 12:17:25;;;;;;;;;;;;;;;;;;5072650;28;20123;-72
2023/07/04 12:20:03;;;;;;;15.30;12.70;;;;;;;;;;5072925;28;20370;-72
2023/07/04 12:22:30;;;;;;;15.50;12.68;;;;;;;;;;5072788;28;20128;-72
2023/07/04 12:25:06;;;;;;;22.08;12.73;;;;;;;;;;5072867;28;20028;-73
2023/07/04 12:27:32;;;;;;;15.50;12.35;;;;;;;;;;5072957;28;20043;-73
2023/07/04 12:29:59;;;;;;;16.48;12.48;;;;;;;;;;5071725;28;20474;-73
2023/07/04 12:32:25;;;;;;;19.55;13.27;;;;;;;;;;5071352;28;20029;-73
2023/07/04 12:34:54;;;;;;;15.32;11.18;;;;;;;;;;5072389;28;20028;-73
2023/07/04 12:37:27;;;;;;;17.88;12.65;;;;;;;;;;5071265;28;20554;-73
2023/07/04 12:39:53;;;;;;;13.93;11.43;;;;;;;;;;5071640;28;20012;-73
2023/07/04 12:42:26;;;;;;;13.23;10.85;;;;;;;;;;5070057;28;20191;-74
2023/07/04 12:44:52;;;;;;;16.63;12.07;;;;;;;;;;5071313;28;20028;-73
2023/07/04 12:47:20;;;;;;;18.88;12.30;;;;;;;;;;5070466;28;20457;-73
2023/07/04 12:49:47;;;;;;;16.30;12.90;;;;;;;;;;5071446;28;20020;-73
2023/07/04 12:52:13;;;;;;;15.80;12.05;;;;;;;;;;5071758;28;20036;-73
2023/07/04 12:54:40;;;;;;;18.67;15.88;;;;;;;;;;5070955;28;20064;-73
2023/07/04 12:57:09;;;;;;;19.40;15.07;;;;;;;;;;5070975;28;20471;-73
2023/07/04 12:59:37;;;;;;;20.42;15.60;;;;;;;;;;5070745;28;20028;-73
2023/07/04 13:02:15;;;;;;;19.77;14.32;;;;;;;;;;5072185;28;20414;-73
2023/07/04 13:04:41;;;;;;;20.30;15.10;;;;;;;;;;5070806;28;20058;-73
2023/07/04 13:07:07;;;;;;;21.13;15.07;;;;;;;;;;5071175;28;20375;-72
2023/07/04 13:09:33;;;;;;;19.88;14.75;;;;;;;;;;5070547;28;20031;-72
2023/07/04 13:12:00;;;;;;;20.40;15.27;;;;;;;;;;5070079;28;20131;-73
2023/07/04 13:14:29;;;;;;;19.60;15.25;;;;;;;;;;5070360;28;20028;-72
2023/07/04 13:17:11;;;;;;;19.40;14.88;;;;;;;;;;5070046;28;20155;-73
2023/07/04 13:19:40;;;;;;;18.80;13.55;;;;;;;;;;5071381;28;20405;-73
2023/07/04 13:22:14;;;;;;;14.75;12.25;;;;;;;;;;5069964;28;20032;-73
2023/07/04 13:24:40;;;;;;;18.15;14.00;;;;;;;;;;5067975;28;20020;-73
2023/07/04 13:27:11;;;;;;;21.63;14.32;;;;;;;;;;5067814;28;20021;-72
2023/07/04 13:29:46;;;;;;;16.67;13.43;;;;;;;;;;5069836;28;20032;-74
2023/07/04 13:32:23;;;;;;;16.33;13.60;;;;;;;;;;5068103;28;20025;-73
2023/07/04 13:34:50;;;;;;;19.42;13.55;;;;;;;;;;5069127;28;20025;-73
2023/07/04 13:37:16;;;;;;;19.30;14.25;;;;;;;;;;5070911;28;20024;-73
2023/07/04 13:39:42;;;;;;;18.17;13.85;;;;;;;;;;5072905;28;20024;-73
2023/07/04 13:42:10;;;;;;;19.27;14.30;;;;;;;;;;5072627;28;20486;-74
2023/07/04 13:44:36;;;;;;;17.85;14.80;;;;;;;;;;5075685;28;20490;-74
2023/07/04 13:47:03;;;;;;;18.35;13.88;;;;;;;;;;5073835;28;20032;-73
2023/07/04 13:49:30;;;;;;;19.02;14.80;;;;;;;;;;5070895;28;20032;-73
2023/07/04 13:51:56;;;;;;;18.65;14.73;;;;;;;;;;5071275;28;20493;-73
2023/07/04 13:54:22;;;;;;;18.42;12.98;;;;;;;;;;5071111;28;20120;-73
2023/07/04 13:56:48;;;;;;;24.08;14.75;;;;;;;;;;5071653;28;20021;-75
2023/07/04 13:59:14;;;;;;;16.67;13.48;;;;;;;;;;5070919;28;20095;-73
2023/07/04 14:01:40;;;;;;;16.83;12.90;;;;;;;;;;5070045;28;20059;-74
2023/07/04 14:04:07;;;;;;;16.50;13.13;;;;;;;;;;5071370;28;20135;-73
2023/07/04 14:06:33;;;;;;;18.08;14.10;;;;;;;;;;5071158;28;20606;-73
2023/07/04 14:08:59;;;;;;;20.25;14.02;;;;;;;;;;5069735;28;20055;-72
2023/07/04 14:11:25;;;;;;;15.57;12.25;;;;;;;;;;5070985;28;20490;-72
2023/07/04 14:13:52;;;;;;;16.08;13.13;;;;;;;;;;5070555;28;20035;-73
2023/07/04 14:16:19;;;;;;;18.15;15.10;;;;;;;;;;5070804;28;20012;-73
2023/07/04 14:18:45;;;;;;;22.83;14.27;;;;;;;;;;5070290;28;20035;-73
2023/07/04 14:21:12;;;;;;;18.48;14.88;;;;;;;;;;5070786;28;20107;-73
2023/07/04 14:23:39;;;;;;;20.58;16.10;;;;;;;;;;5071856;28;20389;-74
2023/07/04 14:26:06;;;;;;;17.38;14.20;;;;;;;;;;5070839;28;20078;-74
2023/07/04 14:28:32;;;;;;;18.98;14.70;;;;;;;;;;5069671;28;20091;-73
2023/07/04 14:30:58;;;;;;;18.50;14.95;;;;;;;;;;5070824;28;20390;-74
2023/07/04 14:33:24;;;;;;;21.02;14.98;;;;;;;;;;5070579;28;20024;-73
2023/07/04 14:35:50;;;;;;;20.08;15.05;;;;;;;;;;5070658;28;20037;-74
2023/07/04 14:38:16;;;;;;;18.50;15.40;;;;;;;;;;5070275;28;20032;-74
2023/07/04 14:40:42;;;;;;;18.45;13.95;;;;;;;;;;5070965;28;20028;-73
2023/07/04 14:43:09;;;;;;;20.88;15.45;;;;;;;;;;5070520;28;20028;-73